createdAt,value
2019-06-07T00:01:09.567Z,15.15
2019-06-07T00:04:08.546Z,15.11
2019-06-07T00:07:03.094Z,15.04
2019-06-07T00:09:59.703Z,15.09
2019-06-07T00:12:56.530Z,15.08
2019-06-07T00:15:53.273Z,15.09
2019-06-07T00:18:49.287Z,15.01
2019-06-07T00:24:41.440Z,15.02
2019-06-07T00:27:39.074Z,15.02
2019-06-07T00:30:48.184Z,15.00
2019-06-07T00:33:32.073Z,14.97
2019-06-07T00:36:27.631Z,14.96
2019-06-07T00:39:25.858Z,14.91
2019-06-07T00:42:23.314Z,14.89
2019-06-07T00:45:18.967Z,14.86
2019-06-07T00:48:19.558Z,14.83
2019-06-07T00:51:08.847Z,14.79
2019-06-07T00:54:05.452Z,14.75
2019-06-07T00:57:00.680Z,14.73
2019-06-07T00:59:57.604Z,14.69
2019-06-07T01:02:53.266Z,14.66
2019-06-07T01:05:49.597Z,14.61
2019-06-07T01:08:46.146Z,14.60
2019-06-07T01:11:43.700Z,14.57
2019-06-07T01:14:40.348Z,14.57
2019-06-07T01:18:32.557Z,14.53
2019-06-07T01:20:39.330Z,14.50
2019-06-07T01:24:06.828Z,14.48
2019-06-07T01:26:31.261Z,14.43
2019-06-07T01:29:30.912Z,14.35
2019-06-07T01:32:27.285Z,14.31
2019-06-07T01:35:22.073Z,14.31
2019-06-07T01:38:21.915Z,14.29
2019-06-07T01:41:17.231Z,14.26
2019-06-07T01:44:10.866Z,14.24
2019-06-07T01:47:08.786Z,14.19
2019-06-07T01:50:03.938Z,14.14
2019-06-07T01:53:00.474Z,14.11
2019-06-07T01:55:56.858Z,14.08
2019-06-07T01:58:54.417Z,14.03
2019-06-07T02:01:49.915Z,14.00
2019-06-07T02:04:46.435Z,13.98
2019-06-07T02:07:41.936Z,13.98
2019-06-07T02:10:39.734Z,13.97
2019-06-07T02:13:37.220Z,13.94
2019-06-07T02:16:32.735Z,13.88
2019-06-07T02:19:32.280Z,13.87
2019-06-07T02:22:25.702Z,13.86
2019-06-07T02:25:38.914Z,13.83
2019-06-07T02:28:44.191Z,13.81
2019-06-07T02:31:13.756Z,13.78
2019-06-07T02:34:10.269Z,13.71
2019-06-07T02:37:05.792Z,13.72
2019-06-07T02:40:01.932Z,13.73
2019-06-07T02:42:58.586Z,13.67
2019-06-07T02:45:55.229Z,13.61
2019-06-07T02:48:51.865Z,13.60
2019-06-07T02:51:48.712Z,13.56
2019-06-07T02:54:45.472Z,13.56
2019-06-07T02:57:42.659Z,13.54
2019-06-07T03:01:07.581Z,13.50
2019-06-07T03:03:53.949Z,13.44
2019-06-07T03:06:50.728Z,13.30
2019-06-07T03:09:47.314Z,13.17
2019-06-07T03:12:43.802Z,13.08
2019-06-07T03:15:49.614Z,13.11
2019-06-07T03:18:47.806Z,13.16
2019-06-07T03:21:44.623Z,13.19
2019-06-07T03:24:42.358Z,13.22
2019-06-07T03:27:48.611Z,13.24
2019-06-07T03:30:47.007Z,13.18
2019-06-07T03:33:36.219Z,13.04
2019-06-07T03:36:29.638Z,12.96
2019-06-07T03:39:25.296Z,12.96
2019-06-07T03:42:21.529Z,12.86
2019-06-07T03:45:16.896Z,12.73
2019-06-07T03:48:13.473Z,12.68
2019-06-07T03:51:24.190Z,12.67
2019-06-07T03:54:06.881Z,12.57
2019-06-07T03:57:02.420Z,12.52
2019-06-07T04:00:00.029Z,12.47
2019-06-07T04:02:56.547Z,12.47
2019-06-07T04:05:55.049Z,12.47
2019-06-07T04:08:51.620Z,12.46
2019-06-07T04:11:47.814Z,12.54
2019-06-07T04:14:45.014Z,12.54
2019-06-07T04:18:00.499Z,12.52
2019-06-07T04:20:41.487Z,12.50
2019-06-07T04:23:38.555Z,12.55
2019-06-07T04:26:34.508Z,12.55
2019-06-07T04:29:34.077Z,12.56
2019-06-07T04:32:24.710Z,12.58
2019-06-07T04:35:22.727Z,12.63
2019-06-07T04:38:17.682Z,12.63
2019-06-07T04:41:15.373Z,12.70
2019-06-07T04:44:10.970Z,12.78
2019-06-07T04:47:07.605Z,12.91
2019-06-07T04:50:04.140Z,12.92
2019-06-07T04:53:01.041Z,12.96
2019-06-07T04:55:57.881Z,13.04
2019-06-07T04:58:54.687Z,13.11
2019-06-07T05:01:51.326Z,13.19
2019-06-07T05:04:47.007Z,13.13
2019-06-07T05:07:46.295Z,13.17
2019-06-07T05:10:43.900Z,13.11
2019-06-07T05:13:39.881Z,13.18
2019-06-07T05:16:37.930Z,13.21
2019-06-07T05:19:30.603Z,13.22
2019-06-07T05:22:27.647Z,13.39
2019-06-07T05:25:27.181Z,13.39
2019-06-07T05:28:24.052Z,13.51
2019-06-07T05:31:20.183Z,13.50
2019-06-07T05:34:16.701Z,13.58
2019-06-07T05:37:13.698Z,13.65
2019-06-07T05:40:09.948Z,13.68
2019-06-07T05:43:05.576Z,13.77
2019-06-07T05:46:02.062Z,13.85
2019-06-07T05:48:58.845Z,13.98
2019-06-07T05:51:55.555Z,14.03
2019-06-07T05:54:52.616Z,14.11
2019-06-07T05:57:51.006Z,14.21
2019-06-07T06:00:47.538Z,14.28
2019-06-07T06:03:44.062Z,14.33
2019-06-07T06:06:39.503Z,14.40
2019-06-07T06:09:35.373Z,14.48
2019-06-07T06:12:38.254Z,14.49
2019-06-07T06:15:42.462Z,14.55
2019-06-07T06:18:24.349Z,14.60
2019-06-07T06:21:20.369Z,14.65
2019-06-07T06:24:16.147Z,14.72
2019-06-07T06:27:41.506Z,14.78
2019-06-07T06:30:08.580Z,14.82
2019-06-07T06:33:06.014Z,14.93
2019-06-07T06:36:01.540Z,15.05
2019-06-07T06:38:59.588Z,15.16
2019-06-07T06:42:03.531Z,15.25
2019-06-07T06:44:54.676Z,15.34
2019-06-07T06:47:50.639Z,15.45
2019-06-07T06:50:49.163Z,15.53
2019-06-07T06:53:43.884Z,15.57
2019-06-07T06:56:39.753Z,15.68
2019-06-07T06:59:39.116Z,15.75
2019-06-07T07:02:31.343Z,15.76
2019-06-07T07:05:28.260Z,15.87
2019-06-07T07:08:23.702Z,15.99
2019-06-07T07:11:23.230Z,16.07
2019-06-07T07:14:17.389Z,16.20
2019-06-07T07:17:12.951Z,16.20
2019-06-07T07:20:08.710Z,16.35
2019-06-07T07:23:06.304Z,16.39
2019-06-07T07:26:01.952Z,16.51
2019-06-07T07:28:59.578Z,16.60
2019-06-07T07:31:56.471Z,16.71
2019-06-07T07:34:59.644Z,16.79
2019-06-07T07:37:53.502Z,16.81
2019-06-07T07:41:02.287Z,16.83
2019-06-07T07:43:45.712Z,16.92
2019-06-07T07:46:39.295Z,17.11
2019-06-07T07:49:35.856Z,17.26
2019-06-07T07:52:32.045Z,17.28
2019-06-07T07:55:28.257Z,17.44
2019-06-07T07:58:23.673Z,17.52
2019-06-07T08:01:20.058Z,17.64
2019-06-07T08:04:39.805Z,17.71
2019-06-07T08:07:20.823Z,17.74
2019-06-07T08:10:16.511Z,17.79
2019-06-07T08:13:24.795Z,17.95
2019-06-07T08:16:16.629Z,18.10
2019-06-07T08:19:08.136Z,18.20
2019-06-07T08:22:04.974Z,18.28
2019-06-07T08:25:04.237Z,18.50
2019-06-07T08:27:59.116Z,18.66
2019-06-07T08:31:03.269Z,18.72
2019-06-07T08:33:52.682Z,18.81
2019-06-07T08:36:48.072Z,18.89
2019-06-07T08:39:43.986Z,19.08
2019-06-07T08:42:59.819Z,19.23
2019-06-07T08:45:39.979Z,19.35
2019-06-07T08:48:36.608Z,19.41
2019-06-07T08:51:32.470Z,19.55
2019-06-07T08:54:30.568Z,19.61
2019-06-07T08:57:26.436Z,19.65
2019-06-07T09:00:45.545Z,19.79
2019-06-07T09:03:18.391Z,19.89
2019-06-07T09:07:01.066Z,20.02
2019-06-07T09:09:11.532Z,20.16
2019-06-07T09:12:11.249Z,20.23
2019-06-07T09:15:20.422Z,20.37
2019-06-07T09:21:09.588Z,20.57
2019-06-07T09:24:11.179Z,20.63
2019-06-07T09:27:04.107Z,20.65
2019-06-07T09:30:03.170Z,20.69
2019-06-07T09:32:53.202Z,20.89
2019-06-07T09:35:50.274Z,20.99
2019-06-07T09:38:45.544Z,21.10
2019-06-07T09:41:47.349Z,21.06
2019-06-07T09:44:40.030Z,21.15
2019-06-07T09:47:40.900Z,21.38
2019-06-07T09:50:36.482Z,21.48
2019-06-07T09:53:33.030Z,21.54
2019-06-07T09:56:28.508Z,21.63
2019-06-07T09:59:25.164Z,21.78
2019-06-07T10:02:21.458Z,21.79
2019-06-07T10:05:18.007Z,21.86
2019-06-07T10:09:01.085Z,21.91
2019-06-07T10:11:11.165Z,21.98
2019-06-07T10:14:08.690Z,22.07
2019-06-07T10:17:10.249Z,22.11
2019-06-07T10:20:07.609Z,22.23
2019-06-07T10:23:05.742Z,22.47
2019-06-07T10:26:01.587Z,22.53
2019-06-07T10:28:57.627Z,22.55
2019-06-07T10:31:53.818Z,22.65
2019-06-07T10:34:50.109Z,22.62
2019-06-07T10:37:45.711Z,22.79
2019-06-07T10:40:41.842Z,22.82
2019-06-07T10:43:37.408Z,22.95
2019-06-07T10:46:35.046Z,22.97
2019-06-07T10:49:30.110Z,23.02
2019-06-07T10:52:26.929Z,23.11
2019-06-07T10:55:24.481Z,23.25
2019-06-07T10:58:20.057Z,23.40
2019-06-07T11:01:18.810Z,23.48
2019-06-07T11:04:20.850Z,23.59
2019-06-07T11:07:17.407Z,23.57
2019-06-07T11:10:19.359Z,23.70
2019-06-07T11:13:10.895Z,23.75
2019-06-07T11:16:07.085Z,23.86
2019-06-07T11:19:00.825Z,24.01
2019-06-07T11:21:56.651Z,24.08
2019-06-07T11:24:52.859Z,24.23
2019-06-07T11:27:47.957Z,24.33
2019-06-07T11:30:44.340Z,24.36
2019-06-07T11:33:41.080Z,24.50
2019-06-07T11:36:37.771Z,24.63
2019-06-07T11:39:34.246Z,24.68
2019-06-07T11:42:29.188Z,24.66
2019-06-07T11:45:25.675Z,24.75
2019-06-07T11:48:22.234Z,24.87
2019-06-07T11:51:18.966Z,24.95
2019-06-07T11:54:16.055Z,25.01
2019-06-07T11:57:13.034Z,25.06
2019-06-07T12:00:09.362Z,25.15
2019-06-07T12:03:07.791Z,25.20
2019-06-07T12:06:05.303Z,25.37
2019-06-07T12:09:00.930Z,25.46
2019-06-07T12:11:57.518Z,25.59
2019-06-07T12:15:00.401Z,25.73
2019-06-07T12:17:58.268Z,25.89
2019-06-07T12:21:00.243Z,25.91
2019-06-07T12:23:51.648Z,25.92
2019-06-07T12:26:49.330Z,26.00
2019-06-07T12:29:44.103Z,26.10
2019-06-07T12:32:40.868Z,26.21
2019-06-07T12:35:37.399Z,26.26
2019-06-07T12:38:35.314Z,26.32
2019-06-07T12:41:31.843Z,26.36
2019-06-07T12:44:27.281Z,26.38
2019-06-07T12:47:24.877Z,26.59
2019-06-07T12:50:21.760Z,26.64
2019-06-07T12:53:17.934Z,26.66
2019-06-07T12:56:13.577Z,26.79
2019-06-07T12:59:10.239Z,26.86
2019-06-07T13:02:05.786Z,26.95
2019-06-07T13:05:04.698Z,27.00
2019-06-07T13:08:00.094Z,27.05
2019-06-07T13:10:56.059Z,27.29
2019-06-07T13:13:52.685Z,27.46
2019-06-07T13:16:48.208Z,27.45
2019-06-07T13:19:45.047Z,27.39
2019-06-07T13:22:41.001Z,27.39
2019-06-07T13:25:46.141Z,27.51
2019-06-07T13:28:34.396Z,27.58
2019-06-07T13:31:30.045Z,27.76
2019-06-07T13:34:26.685Z,28.01
2019-06-07T13:37:23.333Z,28.24
2019-06-07T13:40:19.818Z,28.40
2019-06-07T13:43:14.673Z,28.49
2019-06-07T13:46:16.900Z,28.64
2019-06-07T13:49:13.963Z,28.79
2019-06-07T13:52:11.768Z,29.02
2019-06-07T13:55:13.571Z,29.25
2019-06-07T13:58:11.101Z,29.26
2019-06-07T14:01:07.951Z,29.32
2019-06-07T14:04:04.459Z,29.59
2019-06-07T14:07:01.019Z,30.04
2019-06-07T14:09:56.735Z,30.40
2019-06-07T14:12:53.377Z,30.58
2019-06-07T14:15:50.196Z,31.11
2019-06-07T14:18:45.942Z,31.50
2019-06-07T14:21:42.185Z,31.97
2019-06-07T14:24:37.272Z,32.28
2019-06-07T14:27:36.529Z,32.61
2019-06-07T14:30:33.709Z,32.61
2019-06-07T14:33:31.853Z,32.57
2019-06-07T14:36:26.927Z,32.85
2019-06-07T14:39:23.066Z,33.23
2019-06-07T14:42:19.167Z,33.38
2019-06-07T14:45:16.033Z,33.33
2019-06-07T14:48:12.661Z,33.37
2019-06-07T14:51:09.379Z,33.30
2019-06-07T14:54:08.711Z,33.11
2019-06-07T14:57:05.666Z,33.15
2019-06-07T15:00:10.406Z,33.08
2019-06-07T15:03:00.080Z,33.25
2019-06-07T15:06:10.444Z,33.49
2019-06-07T15:09:07.813Z,33.74
2019-06-07T15:12:03.880Z,33.62
2019-06-07T15:15:00.774Z,33.63
2019-06-07T15:17:58.718Z,33.54
2019-06-07T15:20:54.741Z,33.45
2019-06-07T15:23:53.691Z,33.47
2019-06-07T15:26:49.358Z,33.45
2019-06-07T15:29:47.886Z,33.78
2019-06-07T15:32:43.878Z,33.97
2019-06-07T15:35:40.976Z,33.78
2019-06-07T15:38:39.247Z,33.53
2019-06-07T15:41:35.023Z,33.49
2019-06-07T15:44:33.710Z,33.63
2019-06-07T15:47:29.659Z,33.90
2019-06-07T15:50:28.811Z,33.86
2019-06-07T15:53:25.484Z,33.48
2019-06-07T15:56:21.166Z,33.27
2019-06-07T15:59:17.951Z,33.43
2019-06-07T16:02:14.157Z,33.47
2019-06-07T16:05:10.887Z,32.77
2019-06-07T16:08:07.671Z,32.44
2019-06-07T16:11:05.700Z,32.20
2019-06-07T16:14:02.594Z,32.21
2019-06-07T16:16:59.234Z,31.94
2019-06-07T16:19:56.381Z,31.73
2019-06-07T16:22:52.073Z,31.38
2019-06-07T16:25:52.865Z,31.12
2019-06-07T16:28:49.903Z,30.77
2019-06-07T16:31:46.709Z,30.14
2019-06-07T16:34:45.883Z,29.59
2019-06-07T16:37:40.919Z,29.21
2019-06-07T16:40:44.627Z,29.00
2019-06-07T16:43:40.537Z,28.90
2019-06-07T16:46:36.790Z,28.82
2019-06-07T16:49:33.391Z,28.62
2019-06-07T16:52:29.191Z,28.40
2019-06-07T16:55:26.286Z,28.15
2019-06-07T16:58:23.316Z,27.98
2019-06-07T17:01:21.001Z,27.84
2019-06-07T17:04:16.798Z,27.69
2019-06-07T17:07:13.217Z,27.51
2019-06-07T17:10:14.302Z,27.39
2019-06-07T17:13:10.017Z,27.27
2019-06-07T17:16:07.599Z,27.25
2019-06-07T17:19:02.665Z,27.17
2019-06-07T17:22:01.673Z,27.11
2019-06-07T17:24:57.488Z,27.05
2019-06-07T17:27:54.687Z,26.91
2019-06-07T17:31:03.259Z,26.80
2019-06-07T17:33:59.396Z,26.73
2019-06-07T17:36:56.010Z,26.66
2019-06-07T17:39:51.644Z,26.58
2019-06-07T17:42:49.314Z,26.49
2019-06-07T17:45:47.389Z,26.41
2019-06-07T17:48:53.884Z,26.38
2019-06-07T17:51:52.286Z,26.30
2019-06-07T17:54:48.017Z,26.20
2019-06-07T17:57:49.155Z,26.11
2019-06-07T18:00:51.073Z,26.08
2019-06-07T18:03:49.157Z,26.03
2019-06-07T18:06:45.278Z,25.98
2019-06-07T18:09:41.749Z,25.91
2019-06-07T18:12:39.395Z,25.83
2019-06-07T18:15:35.044Z,25.76
2019-06-07T18:18:32.123Z,25.67
2019-06-07T18:21:36.010Z,25.61
2019-06-07T18:24:31.895Z,25.55
2019-06-07T18:27:28.837Z,25.43
2019-06-07T18:30:25.175Z,25.24
2019-06-07T18:33:24.302Z,25.03
2019-06-07T18:36:21.917Z,24.85
2019-06-07T18:39:17.251Z,24.68
2019-06-07T18:42:15.464Z,24.51
2019-06-07T18:45:12.422Z,24.38
2019-06-07T18:48:09.805Z,24.28
2019-06-07T18:51:05.644Z,24.17
2019-06-07T18:54:03.737Z,24.12
2019-06-07T18:57:00.553Z,24.06
2019-06-07T18:59:58.715Z,23.98
2019-06-07T19:02:56.126Z,23.89
2019-06-07T19:05:52.161Z,23.81
2019-06-07T19:08:48.433Z,23.72
2019-06-07T19:11:43.467Z,23.66
2019-06-07T19:14:40.621Z,23.58
2019-06-07T19:17:37.202Z,23.54
2019-06-07T19:20:33.539Z,23.45
2019-06-07T19:23:30.275Z,23.38
2019-06-07T19:26:26.077Z,23.35
2019-06-07T19:29:23.287Z,23.30
2019-06-07T19:32:23.909Z,23.25
2019-06-07T19:35:20.670Z,23.22
2019-06-07T19:38:22.454Z,23.16
2019-06-07T19:41:20.095Z,23.11
2019-06-07T19:44:17.833Z,23.04
2019-06-07T19:47:13.744Z,22.99
2019-06-07T19:50:10.199Z,22.94
2019-06-07T19:53:08.193Z,22.91
2019-06-07T19:56:04.565Z,22.84
2019-06-07T19:59:01.712Z,22.78
2019-06-07T20:01:57.906Z,22.74
2019-06-07T20:04:59.510Z,22.67
2019-06-07T20:07:52.118Z,22.60
2019-06-07T20:10:56.442Z,22.53
2019-06-07T20:13:51.820Z,22.49
2019-06-07T20:16:48.495Z,22.42
2019-06-07T20:19:44.338Z,22.33
2019-06-07T20:22:41.322Z,22.24
2019-06-07T20:25:43.213Z,22.14
2019-06-07T20:28:40.035Z,22.08
2019-06-07T20:31:37.055Z,21.99
2019-06-07T20:34:45.970Z,21.94
2019-06-07T20:37:42.608Z,21.89
2019-06-07T20:40:39.323Z,21.81
2019-06-07T20:43:47.015Z,21.75
2019-06-07T20:46:42.464Z,21.69
2019-06-07T20:49:39.542Z,21.64
2019-06-07T20:52:35.211Z,21.58
2019-06-07T20:55:33.053Z,21.52
2019-06-07T20:58:28.965Z,21.46
2019-06-07T21:01:26.587Z,21.40
2019-06-07T21:04:23.305Z,21.28
2019-06-07T21:07:19.965Z,21.17
2019-06-07T21:10:17.379Z,21.13
2019-06-07T21:13:15.173Z,21.10
2019-06-07T21:16:11.272Z,21.11
2019-06-07T21:19:08.336Z,21.11
2019-06-07T21:22:05.025Z,21.06
2019-06-07T21:25:03.203Z,20.89
2019-06-07T21:27:57.989Z,20.65
2019-06-07T21:30:54.610Z,20.68
2019-06-07T21:33:50.641Z,20.60
2019-06-07T21:36:47.503Z,20.44
2019-06-07T21:39:42.278Z,20.29
2019-06-07T21:42:39.494Z,20.11
2019-06-07T21:45:35.117Z,19.95
2019-06-07T21:48:32.834Z,19.78
2019-06-07T21:51:28.426Z,19.46
2019-06-07T21:54:25.204Z,19.20
2019-06-07T21:57:20.896Z,18.76
2019-06-07T22:00:26.932Z,18.76
2019-06-07T22:03:23.303Z,18.65
2019-06-07T22:06:22.036Z,18.52
2019-06-07T22:09:18.900Z,18.38
2019-06-07T22:12:15.517Z,18.23
2019-06-07T22:15:32.065Z,18.17
2019-06-07T22:18:10.739Z,18.00
2019-06-07T22:21:06.418Z,17.74
2019-06-07T22:24:08.947Z,17.52
2019-06-07T22:27:05.516Z,17.26
2019-06-07T22:30:00.002Z,17.13
2019-06-07T22:32:56.986Z,17.09
2019-06-07T22:35:52.684Z,17.03
2019-06-07T22:38:50.515Z,16.96
2019-06-07T22:41:46.086Z,16.91
2019-06-07T22:44:42.337Z,16.87
2019-06-07T22:47:40.515Z,16.85
2019-06-07T22:50:36.090Z,16.82
2019-06-07T22:53:32.938Z,16.72
2019-06-07T22:56:43.244Z,16.68
2019-06-07T22:59:41.365Z,16.64
2019-06-07T23:02:36.845Z,16.60
2019-06-07T23:05:34.452Z,16.60
2019-06-07T23:08:31.071Z,16.50
2019-06-07T23:11:27.213Z,16.45
2019-06-07T23:14:25.643Z,16.42
2019-06-07T23:17:20.750Z,16.34
2019-06-07T23:20:15.915Z,16.25
2019-06-07T23:23:12.265Z,16.24
2019-06-07T23:26:08.181Z,16.19
2019-06-07T23:29:06.127Z,16.09
2019-06-07T23:32:01.916Z,16.00
2019-06-07T23:34:59.643Z,15.99
2019-06-07T23:37:55.259Z,16.00
2019-06-07T23:40:51.628Z,15.90
2019-06-07T23:43:47.138Z,15.81
2019-06-07T23:46:44.077Z,15.74
2019-06-07T23:49:42.002Z,15.72
2019-06-07T23:52:38.211Z,15.76
2019-06-07T23:55:34.000Z,15.72
2019-06-07T23:58:30.475Z,15.71
